X  Chiuso Dati meteorologici dell'aviazione (METAR)        LGTS Thessaloniki Macedonia International
Temperatura
15°C Temperatura
10°C Punto di rugiada
72% Umidità



Vento
2 M/S
5 MPH
7 KM/O
4 KTS



140°
SE
Condizioni attuali

Partly Cloudy with Rain Parzialmente nuvoloso , Pioggia
Pressione 1014 (hPa) - 29.94 (inHg)
Visibilità 6 (miglio) - 10 (km)
Aeroporto
Codice-Aeroporto LGTS

Posizione: Thessaloniki Macedonia International
Distanza: 85 (km)

Metar:
METAR LGTS 010120Z 14004KT 9999 RA SCT020 15/10 Q1014 NOSIG

Ore: 01-03-2024 03:20 EET